createdAt,value
2018-01-06T00:05:12.585Z,62.2
2018-01-06T00:15:27.075Z,60.8
2018-01-06T00:25:41.380Z,58.6
2018-01-06T00:35:56.045Z,58.8
2018-01-06T00:46:09.839Z,60.5
2018-01-06T00:56:25.318Z,58.8
2018-01-06T01:06:40.646Z,57.9
2018-01-06T01:16:56.182Z,58.8
2018-01-06T01:27:10.742Z,56.7
2018-01-06T01:37:25.506Z,55.3
2018-01-06T01:47:40.313Z,53.9
2018-01-06T01:57:55.024Z,52.1
2018-01-06T02:08:10.020Z,51
2018-01-06T02:18:25.255Z,48.5
2018-01-06T02:28:40.887Z,46.2
2018-01-06T02:38:55.041Z,44.6
2018-01-06T02:49:10.084Z,42.8
2018-01-06T02:59:24.295Z,41.4
2018-01-06T03:09:38.915Z,40.3
2018-01-06T03:19:52.958Z,39.7
2018-01-06T03:30:08.338Z,38.8
2018-01-06T03:40:22.241Z,38.2
2018-01-06T03:50:36.089Z,37.5
2018-01-06T04:00:50.121Z,37
2018-01-06T04:11:04.316Z,36.6
2018-01-06T04:21:18.808Z,36.4
2018-01-06T04:31:32.776Z,36.9
2018-01-06T04:41:47.461Z,36.8
2018-01-06T04:52:01.320Z,36
2018-01-06T05:02:15.728Z,37
2018-01-06T05:12:30.290Z,36.9
2018-01-06T05:22:44.365Z,35.7
2018-01-06T05:32:59.035Z,35.7
2018-01-06T05:43:12.793Z,36
2018-01-06T05:53:27.834Z,35.9
2018-01-06T06:03:43.435Z,35.8
2018-01-06T06:13:57.903Z,35.8
2018-01-06T06:24:13.358Z,36
2018-01-06T06:34:27.544Z,35.6
2018-01-06T06:44:42.738Z,36.3
2018-01-06T06:54:57.568Z,36.2
2018-01-06T07:05:11.357Z,37.5
2018-01-06T07:15:26.056Z,39.7
2018-01-06T07:25:40.330Z,41.8
2018-01-06T07:35:54.109Z,42.5
2018-01-06T07:46:09.067Z,44.3
2018-01-06T07:56:23.703Z,46.6
2018-01-06T08:06:38.576Z,49.8
2018-01-06T08:16:54.024Z,51.1
2018-01-06T08:27:09.346Z,53.2
2018-01-06T08:37:23.562Z,54.3
2018-01-06T08:47:38.143Z,56.5
2018-01-06T08:57:52.903Z,56.9
2018-01-06T09:08:06.878Z,55.7
2018-01-06T09:18:21.692Z,57
2018-01-06T09:28:36.233Z,59
2018-01-06T09:38:50.700Z,57.8
2018-01-06T09:49:05.781Z,66.6
2018-01-06T09:59:20.173Z,67.7
2018-01-06T10:09:34.884Z,72
2018-01-06T10:19:50.047Z,75.7
2018-01-06T10:30:05.028Z,72.5
2018-01-06T10:40:19.122Z,73
2018-01-06T10:50:33.055Z,75.6
2018-01-06T11:00:47.511Z,81.2
2018-01-06T11:11:01.683Z,83
2018-01-06T11:21:16.204Z,86.6
2018-01-06T11:31:31.699Z,87.6
2018-01-06T11:41:46.314Z,89.9
2018-01-06T11:52:00.417Z,91.2
2018-01-06T12:02:15.980Z,93.6
2018-01-06T12:12:30.933Z,94.5
2018-01-06T12:22:45.677Z,93
2018-01-06T12:33:01.155Z,94.7
2018-01-06T12:43:16.069Z,95
2018-01-06T12:53:31.303Z,95.2
2018-01-06T13:03:46.194Z,95.2
2018-01-06T13:14:01.479Z,94.5
2018-01-06T13:24:16.220Z,93.9
2018-01-06T13:34:31.538Z,92.7
2018-01-06T13:44:46.803Z,92.7
2018-01-06T13:55:02.393Z,92.7
2018-01-06T14:05:16.324Z,92.2
2018-01-06T14:15:30.253Z,93
2018-01-06T14:25:45.830Z,92.5
2018-01-06T14:36:00.867Z,90
2018-01-06T14:46:14.752Z,87.9
2018-01-06T14:56:30.315Z,88.2
2018-01-06T15:06:45.288Z,87.6
2018-01-06T15:16:59.405Z,85.8
2018-01-06T15:27:14.398Z,83.1
2018-01-06T15:37:28.138Z,81.1
2018-01-06T15:47:43.475Z,80.5
2018-01-06T15:57:58.620Z,79.3
2018-01-06T16:08:14.185Z,75.8
2018-01-06T16:18:28.986Z,72.1
2018-01-06T16:28:44.040Z,72.1
2018-01-06T16:38:58.968Z,72.2
2018-01-06T16:49:13.185Z,71.1
2018-01-06T16:59:28.476Z,70.3
2018-01-06T17:09:44.145Z,68.5
2018-01-06T17:19:58.815Z,68.5
2018-01-06T17:30:12.556Z,71.1
2018-01-06T17:40:26.836Z,72.2
2018-01-06T17:50:40.919Z,72
2018-01-06T18:00:55.758Z,70.9
2018-01-06T18:11:11.338Z,69.8
2018-01-06T18:21:25.274Z,68.8
2018-01-06T18:31:39.454Z,68.5
2018-01-06T18:41:53.995Z,68.2
2018-01-06T18:52:08.201Z,68.8
2018-01-06T19:02:23.599Z,68.5
2018-01-06T19:12:39.167Z,68.8
2018-01-06T19:22:54.136Z,69.4
2018-01-06T19:33:08.035Z,69.8
2018-01-06T19:43:23.078Z,73.1
2018-01-06T19:53:37.937Z,75.8
2018-01-06T20:03:52.674Z,78.3
2018-01-06T20:14:06.558Z,84.4
2018-01-06T20:24:21.278Z,87.7
2018-01-06T20:34:35.825Z,89
2018-01-06T20:44:51.065Z,89.4
2018-01-06T20:55:05.046Z,88.9
2018-01-06T21:05:20.171Z,89.8
2018-01-06T21:15:35.015Z,89.4
2018-01-06T21:25:50.635Z,90.6
2018-01-06T21:36:05.722Z,93.4
2018-01-06T21:46:19.519Z,95.9
2018-01-06T21:56:34.904Z,97.4
2018-01-06T22:06:50.449Z,98
2018-01-06T22:17:05.981Z,98.9
2018-01-06T22:27:20.366Z,99.2
2018-01-06T22:37:35.897Z,99.5
2018-01-06T22:47:50.297Z,100
2018-01-06T22:58:04.589Z,99.5
2018-01-06T23:08:18.882Z,99
2018-01-06T23:18:34.117Z,98.5
2018-01-06T23:28:48.529Z,97.3
2018-01-06T23:39:03.895Z,97.8
2018-01-06T23:49:18.988Z,97.4
2018-01-06T23:59:33.532Z,97.2
